Time;durP1;ratioP1;P1;durP2;ratioP2;P2;SDS_P1;SDS_P2;PMS_P1;PMS_P2;Temp;Humidity;BMP_temperature;BMP_pressure;BME280_temperature;BME280_humidity;BME280_pressure;Samples;Min_cycle;Max_cycle;Signal;HPM_P1;HPM_P2
2023/11/20 14:47:23;;;;;;;;;0.00;0.00;;;;;;;;5104086;27;28540;-90
2023/11/20 14:49:49;;;;;;;;;0.00;0.00;;;;;;;;5086822;28;28519;-90
2023/11/20 14:52:16;;;;;;;;;0.00;0.00;;;;;;;;5086716;28;28413;-90
2023/11/20 15:37:51;;;;;;;;;0.00;0.00;;;;;;;;5104878;27;28491;-89
2023/11/20 15:40:17;;;;;;;;;0.00;0.00;;;;;;;;5074482;27;28689;-90
2023/11/20 15:42:42;;;;;;;;;0.00;0.00;;;;;;;;5132080;27;28470;-91
2023/11/20 15:45:08;;;;;;;;;0.00;0.00;;;;;;;;5102412;28;9489;-91
2023/11/20 15:47:33;;;;;;;;;0.00;0.00;;;;;;;;5104347;28;9647;-91
2023/11/20 15:49:59;;;;;;;;;0.00;0.00;;;;;;;;5106412;28;8824;-91
2023/11/20 15:52:24;;;;;;;;;0.00;0.00;;;;;;;;5104209;28;8906;-91
2023/11/20 15:54:49;;;;;;;;;0.00;0.00;;;;;;;;5106013;27;8797;-91
2023/11/20 15:57:14;;;;;;;;;0.00;0.00;;;;;;;;5104483;28;9590;-91
2023/11/20 15:59:40;;;;;;;;;0.00;0.00;;;;;;;;5106237;27;9598;-90
2023/11/20 16:02:05;;;;;;;;;0.00;0.00;;;;;;;;5104021;28;9370;-91
2023/11/20 16:04:31;;;;;;;;;0.00;0.00;;;;;;;;5104641;28;8836;-91
2023/11/20 16:06:57;;;;;;;;;0.00;0.00;;;;;;;;5104069;28;8832;-90
2023/11/20 16:09:23;;;;;;;;;0.00;0.00;;;;;;;;5106340;27;8906;-90
2023/11/20 16:11:48;;;;;;;;;0.00;0.00;;;;;;;;5094040;28;11465;-90
2023/11/20 16:14:14;;;;;;;;;0.00;0.00;;;;;;;;5106087;27;8843;-90
2023/11/20 16:16:41;;;;;;;;;0.00;0.00;;;;;;;;5105136;27;8822;-90
2023/11/20 16:19:07;;;;;;;;;0.00;0.00;;;;;;;;5103451;28;9658;-91
2023/11/20 16:21:32;;;;;;;;;0.00;0.00;;;;;;;;5103423;28;11485;-91
2023/11/20 16:23:57;;;;;;;;;0.00;0.00;;;;;;;;5138922;27;9501;-91
2023/11/20 16:26:22;;;;;;;;;0.00;0.00;;;;;;;;5105217;28;9589;-90
2023/11/20 16:28:48;;;;;;;;;0.00;0.00;;;;;;;;5102461;28;27049;-92
2023/11/20 16:31:13;;;;;;;;;0.00;0.00;;;;;;;;5105361;27;8766;-91
2023/11/20 16:33:38;;;;;;;;;0.00;0.00;;;;;;;;5104643;28;11461;-91
2023/11/20 16:36:04;;;;;;;;;0.00;0.00;;;;;;;;5105887;28;9813;-90
2023/11/20 16:38:29;;;;;;;;;0.00;0.00;;;;;;;;5105196;28;10227;-92
2023/11/20 16:40:55;;;;;;;;;0.00;0.00;;;;;;;;5103907;28;8789;-89
2023/11/20 16:43:20;;;;;;;;;0.00;0.00;;;;;;;;5100256;27;28354;-91
2023/11/20 16:45:46;;;;;;;;;0.00;0.00;;;;;;;;5093382;28;28620;-90
2023/11/20 16:48:11;;;;;;;;;0.00;0.00;;;;;;;;5075047;28;28693;-91
2023/11/20 16:50:37;;;;;;;;;0.00;0.00;;;;;;;;5077833;28;28378;-91
2023/11/20 16:53:02;;;;;;;;;0.00;0.00;;;;;;;;5084178;28;28603;-91
2023/11/20 16:55:27;;;;;;;;;0.00;0.00;;;;;;;;5077922;28;8797;-90
2023/11/20 16:57:53;;;;;;;;;0.00;0.00;;;;;;;;5088410;28;8856;-91
2023/11/20 17:00:19;;;;;;;;;0.00;0.00;;;;;;;;5089835;28;8814;-90
2023/11/20 17:02:44;;;;;;;;;0.00;0.00;;;;;;;;5086938;28;8882;-90
2023/11/20 17:05:10;;;;;;;;;0.00;0.00;;;;;;;;5090579;28;11441;-89
2023/11/20 17:07:35;;;;;;;;;0.00;0.00;;;;;;;;5124670;27;8830;-91
2023/11/20 17:10:00;;;;;;;;;0.00;0.00;;;;;;;;5087809;28;27809;-90
2023/11/20 17:12:26;;;;;;;;;0.00;0.00;;;;;;;;5080104;28;28433;-90
2023/11/20 17:14:52;;;;;;;;;0.00;0.00;;;;;;;;5091515;28;10201;-92
2023/11/20 17:17:18;;;;;;;;;0.00;0.00;;;;;;;;5092003;28;8806;-91
2023/11/20 17:19:43;;;;;;;;;0.00;0.00;;;;;;;;5078793;28;24888;-91
2023/11/20 17:22:08;;;;;;;;;0.00;0.00;;;;;;;;5080791;28;28423;-91
2023/11/20 17:24:33;;;;;;;;;0.00;0.00;;;;;;;;5089447;28;9590;-89
2023/11/20 17:26:58;;;;;;;;;0.00;0.00;;;;;;;;5090832;28;8845;-91
2023/11/20 17:29:24;;;;;;;;;0.00;0.00;;;;;;;;5089915;28;24895;-91
2023/11/20 17:31:51;;;;;;;;;0.00;0.00;;;;;;;;5071760;28;28695;-93
2023/11/20 17:34:17;;;;;;;;;0.00;0.00;;;;;;;;5083919;28;31174;-90
2023/11/20 17:36:44;;;;;;;;;0.00;0.00;;;;;;;;5090243;28;27298;-91
2023/11/20 17:39:09;;;;;;;;;0.00;0.00;;;;;;;;5120196;27;28519;-90
2023/11/20 17:41:34;;;;;;;;;0.00;0.00;;;;;;;;5115473;27;25657;-90
2023/11/20 17:43:59;;;;;;;;;0.00;0.00;;;;;;;;5079835;28;28149;-91
2023/11/20 17:46:26;;;;;;;;;0.00;0.00;;;;;;;;5088288;28;24952;-92
2023/11/20 17:48:51;;;;;;;;;0.00;0.00;;;;;;;;5090492;28;24099;-91
2023/11/20 17:51:16;;;;;;;;;0.00;0.00;;;;;;;;5083703;28;8849;-91
2023/11/20 17:53:41;;;;;;;;;0.00;0.00;;;;;;;;5087246;28;28469;-91
2023/11/20 17:56:08;;;;;;;;;0.00;0.00;;;;;;;;5086068;28;9732;-90
2023/11/20 17:58:34;;;;;;;;;0.00;0.00;;;;;;;;5087491;28;9561;-92
2023/11/20 18:00:59;;;;;;;;;0.00;0.00;;;;;;;;5084112;28;8837;-91
2023/11/20 18:03:25;;;;;;;;;0.00;0.00;;;;;;;;5083781;28;9556;-92
2023/11/20 18:05:50;;;;;;;;;0.00;0.00;;;;;;;;5084538;28;8929;-92
2023/11/20 18:08:15;;;;;;;;;0.00;0.00;;;;;;;;5073640;28;27883;-93
2023/11/20 18:10:41;;;;;;;;;0.00;0.00;;;;;;;;5066128;28;28426;-92
2023/11/20 18:13:06;;;;;;;;;0.00;0.00;;;;;;;;5066519;28;29479;-92
2023/11/20 18:15:31;;;;;;;;;0.00;0.00;;;;;;;;5069823;28;28476;-91
2023/11/20 18:17:56;;;;;;;;;0.00;0.00;;;;;;;;5068117;28;28576;-92
2023/11/20 18:20:21;;;;;;;;;0.00;0.00;;;;;;;;5072385;28;28387;-89
2023/11/20 18:22:48;;;;;;;;;0.00;0.00;;;;;;;;5079140;28;31650;-90
2023/11/20 18:25:14;;;;;;;;;0.00;0.00;;;;;;;;5083147;28;27921;-91
2023/11/20 18:27:39;;;;;;;;;0.00;0.00;;;;;;;;5089039;28;8979;-90
2023/11/20 18:30:05;;;;;;;;;0.00;0.00;;;;;;;;5090809;28;8844;-90
2023/11/20 18:32:30;;;;;;;;;0.00;0.00;;;;;;;;5089671;28;8809;-90
2023/11/20 18:34:56;;;;;;;;;0.00;0.00;;;;;;;;5104011;28;8878;-90
2023/11/20 18:37:22;;;;;;;;;0.00;0.00;;;;;;;;5076782;28;9681;-90
2023/11/20 18:39:47;;;;;;;;;0.00;0.00;;;;;;;;5089379;28;8939;-91
2023/11/20 18:42:14;;;;;;;;;0.00;0.00;;;;;;;;5089915;28;8815;-89
2023/11/20 18:44:40;;;;;;;;;0.00;0.00;;;;;;;;5090618;28;8879;-88
2023/11/20 18:47:05;;;;;;;;;0.00;0.00;;;;;;;;5091442;28;9588;-94
2023/11/20 18:49:30;;;;;;;;;0.00;0.00;;;;;;;;5090849;28;8813;-91
2023/11/20 18:51:55;;;;;;;;;0.00;0.00;;;;;;;;5089936;28;8819;-89
2023/11/20 18:54:20;;;;;;;;;0.00;0.00;;;;;;;;5084601;28;9501;-90
2023/11/20 18:56:46;;;;;;;;;0.00;0.00;;;;;;;;5090605;27;9212;-90
2023/11/20 18:59:12;;;;;;;;;0.00;0.00;;;;;;;;5087542;28;9993;-92
2023/11/20 19:01:37;;;;;;;;;0.00;0.00;;;;;;;;5107800;27;9361;-91
2023/11/20 19:04:04;;;;;;;;;0.00;0.00;;;;;;;;5090271;28;8807;-91
2023/11/20 19:06:30;;;;;;;;;0.00;0.00;;;;;;;;5088632;28;9681;-89
2023/11/20 19:08:55;;;;;;;;;0.00;0.00;;;;;;;;5088820;28;11441;-91
2023/11/20 19:11:21;;;;;;;;;0.00;0.00;;;;;;;;5089866;28;9581;-90
2023/11/20 19:13:46;;;;;;;;;0.00;0.00;;;;;;;;5090960;28;8782;-90
2023/11/20 19:16:11;;;;;;;;;0.00;0.00;;;;;;;;5088635;28;8835;-92
2023/11/20 19:18:38;;;;;;;;;0.00;0.00;;;;;;;;5088587;28;27034;-93
2023/11/20 19:21:03;;;;;;;;;0.00;0.00;;;;;;;;5091693;28;8878;-90
2023/11/20 19:23:28;;;;;;;;;0.00;0.00;;;;;;;;5093777;28;8894;-90
2023/11/20 19:25:54;;;;;;;;;0.00;0.00;;;;;;;;5082982;28;8840;-92
2023/11/20 19:28:19;;;;;;;;;0.00;0.00;;;;;;;;5070846;28;8819;-90
2023/11/20 19:30:44;;;;;;;;;0.00;0.00;;;;;;;;5094354;28;8879;-94
2023/11/20 19:33:09;;;;;;;;;0.00;0.00;;;;;;;;5095038;28;9366;-96
2023/11/20 19:35:38;;;;;;;;;0.00;0.00;;;;;;;;5093571;28;8809;-94
2023/11/20 19:38:04;;;;;;;;;0.00;0.00;;;;;;;;5092457;28;8940;-94
2023/11/20 19:40:29;;;;;;;;;0.00;0.00;;;;;;;;5095591;28;8939;-93
2023/11/20 19:42:55;;;;;;;;;0.00;0.00;;;;;;;;5097671;28;8821;-95
2023/11/20 19:45:21;;;;;;;;;0.00;0.00;;;;;;;;5108209;28;8850;-94
2023/11/20 19:47:46;;;;;;;;;0.00;0.00;;;;;;;;5091855;28;8825;-95
2023/11/20 19:50:11;;;;;;;;;0.00;0.00;;;;;;;;5100129;28;8848;-94
2023/11/20 19:52:37;;;;;;;;;0.00;0.00;;;;;;;;5099324;28;8817;-93
2023/11/20 19:55:02;;;;;;;;;0.00;0.00;;;;;;;;5095502;28;8833;-93
2023/11/20 19:57:28;;;;;;;;;0.00;0.00;;;;;;;;5102337;28;8968;-95
2023/11/20 19:59:54;;;;;;;;;0.00;0.00;;;;;;;;5088118;27;8732;-93
2023/11/20 20:02:20;;;;;;;;;0.00;0.00;;;;;;;;5099683;28;8794;-94
2023/11/20 20:04:45;;;;;;;;;0.00;0.00;;;;;;;;5108740;27;8798;-94
2023/11/20 20:07:11;;;;;;;;;0.00;0.00;;;;;;;;5116112;27;8915;-94
2023/11/20 20:09:36;;;;;;;;;0.00;0.00;;;;;;;;5098510;28;8829;-92
2023/11/20 20:12:02;;;;;;;;;0.00;0.00;;;;;;;;5093636;28;8818;-93
2023/11/20 20:14:27;;;;;;;;;0.00;0.00;;;;;;;;5095750;28;8838;-91
2023/11/20 20:16:56;;;;;;;;;0.00;0.00;;;;;;;;5093412;28;11469;-93
2023/11/20 20:19:22;;;;;;;;;0.00;0.00;;;;;;;;5093159;28;9553;-93
2023/11/20 20:21:47;;;;;;;;;0.00;0.00;;;;;;;;5098189;28;11463;-93
2023/11/20 20:24:12;;;;;;;;;0.00;0.00;;;;;;;;5095130;28;9557;-92
2023/11/20 20:26:38;;;;;;;;;0.00;0.00;;;;;;;;5094357;28;8849;-93
2023/11/20 20:29:03;;;;;;;;;0.00;0.00;;;;;;;;5096501;28;8821;-93
2023/11/20 20:31:28;;;;;;;;;0.00;0.00;;;;;;;;5111859;28;8791;-93
2023/11/20 20:33:55;;;;;;;;;0.00;0.00;;;;;;;;5101335;28;8805;-94
2023/11/20 20:36:20;;;;;;;;;0.00;0.00;;;;;;;;5094130;28;8816;-93
2023/11/20 20:38:46;;;;;;;;;0.00;0.00;;;;;;;;5094579;28;11465;-92
2023/11/20 20:41:11;;;;;;;;;0.00;0.00;;;;;;;;5092886;28;10230;-91
2023/11/20 20:43:37;;;;;;;;;0.00;0.00;;;;;;;;5091812;28;8800;-92
2023/11/20 20:46:04;;;;;;;;;0.00;0.00;;;;;;;;5084596;28;9281;-94
2023/11/20 20:48:29;;;;;;;;;0.00;0.00;;;;;;;;5096185;28;8757;-95
2023/11/20 20:50:54;;;;;;;;;0.00;0.00;;;;;;;;5103867;28;11457;-95
2023/11/20 20:53:20;;;;;;;;;0.00;0.00;;;;;;;;5097641;28;8839;-91
2023/11/20 20:55:46;;;;;;;;;0.00;0.00;;;;;;;;5094804;28;8842;-91
2023/11/20 20:58:12;;;;;;;;;0.00;0.00;;;;;;;;5096266;28;8809;-92
